Time;durP1;ratioP1;P1;durP2;ratioP2;P2;SDS_P1;SDS_P2;PMS_P1;PMS_P2;Temp;Humidity;BMP_temperature;BMP_pressure;BME280_temperature;BME280_humidity;BME280_pressure;Samples;Min_cycle;Max_cycle;Signal;HPM_P1;HPM_P2
2022/06/24 00:00:38;;;;;;;111.55;49.28;;;;;;;19.87;100.00;100244.94;5092111;28;20517;-75
2022/06/24 00:03:03;;;;;;;101.22;41.75;;;;;;;19.77;100.00;100277.75;5075579;28;20032;-75
2022/06/24 00:05:33;;;;;;;96.55;40.95;;;;;;;19.71;100.00;100286.84;5092164;28;20032;-75
2022/06/24 00:07:59;;;;;;;87.15;39.67;;;;;;;19.79;100.00;100303.41;5092077;28;20028;-75
2022/06/24 00:10:31;;;;;;;67.53;27.60;;;;;;;19.75;100.00;100340.97;5092374;28;20028;-75
2022/06/24 00:12:56;;;;;;;61.85;24.05;;;;;;;19.79;100.00;100389.53;5075537;28;20024;-75
2022/06/24 00:15:29;;;;;;;65.75;27.98;;;;;;;19.77;100.00;100434.19;5092044;28;20057;-75
2022/06/24 00:17:56;;;;;;;64.35;24.38;;;;;;;19.74;100.00;100498.47;5093501;28;20047;-75
2022/06/24 00:20:23;;;;;;;73.63;27.30;;;;;;;19.75;100.00;100522.41;5093216;28;20035;-75
2022/06/24 00:22:50;;;;;;;117.07;35.30;;;;;;;19.57;100.00;100483.00;5075284;28;20036;-74
2022/06/24 00:25:18;;;;;;;106.22;33.75;;;;;;;19.27;100.00;100469.09;5091962;28;20471;-74
2022/06/24 00:28:02;;;;;;;93.28;31.90;;;;;;;19.20;100.00;100481.97;5092201;28;20023;-74
2022/06/24 00:30:28;;;;;;;120.10;37.80;;;;;;;19.26;100.00;100456.25;5091906;28;20063;-74
2022/06/24 00:33:27;;;;;;;104.85;33.50;;;;;;;19.34;100.00;100422.84;5091982;28;20040;-74
2022/06/24 00:35:56;;;;;;;137.73;36.90;;;;;;;19.37;100.00;100386.38;5091354;28;20080;-75
2022/06/24 00:38:24;;;;;;;101.32;33.13;;;;;;;19.24;100.00;100400.06;5075283;28;20039;-75
2022/06/24 00:41:00;;;;;;;102.20;32.20;;;;;;;19.15;100.00;100404.84;5093053;28;20043;-75
2022/06/24 00:43:37;;;;;;;105.18;37.83;;;;;;;19.27;100.00;100383.03;5074756;28;20555;-75
2022/06/24 00:46:10;;;;;;;90.75;35.53;;;;;;;19.32;100.00;100380.53;5091778;28;20036;-75
2022/06/24 00:48:41;;;;;;;110.03;35.53;;;;;;;19.37;100.00;100383.59;5097050;28;20103;-75
2022/06/24 00:51:10;;;;;;;137.45;42.85;;;;;;;19.40;100.00;100383.22;5095821;28;20028;-75
2022/06/24 00:53:49;;;;;;;133.10;43.33;;;;;;;19.39;100.00;100373.16;5097068;28;20127;-75
2022/06/24 00:56:18;;;;;;;92.57;36.97;;;;;;;19.41;100.00;100376.63;5095771;28;20105;-75
2022/06/24 00:58:58;;;;;;;124.25;41.80;;;;;;;19.47;100.00;100367.50;5078776;28;20042;-74
2022/06/24 01:01:35;;;;;;;101.57;40.75;;;;;;;19.36;100.00;100367.13;5096883;28;20146;-75
2022/06/24 01:04:02;;;;;;;107.38;38.95;;;;;;;19.32;100.00;100354.69;5096914;28;20475;-74
2022/06/24 01:06:29;;;;;;;97.50;36.88;;;;;;;19.28;100.00;100360.63;5096690;28;20028;-75
2022/06/24 01:08:56;;;;;;;110.15;38.17;;;;;;;19.28;100.00;100348.66;5096649;28;20103;-75
2022/06/24 01:11:30;;;;;;;116.28;40.63;;;;;;;19.32;100.00;100351.94;5095754;28;20336;-75
2022/06/24 01:13:56;;;;;;;103.20;37.38;;;;;;;19.27;100.00;100345.00;5095525;28;20107;-75
2022/06/24 01:16:23;;;;;;;126.78;42.63;;;;;;;19.39;100.00;100352.88;5078488;28;20034;-75
2022/06/24 01:18:56;;;;;;;123.47;42.80;;;;;;;19.34;100.00;100353.44;5095339;28;20043;-74
2022/06/24 01:21:42;;;;;;;136.88;43.67;;;;;;;19.27;100.00;100356.13;5096680;28;20101;-75
2022/06/24 01:24:15;;;;;;;126.30;47.63;;;;;;;19.37;100.00;100360.53;5095252;28;20130;-75
2022/06/24 01:26:42;;;;;;;159.30;55.28;;;;;;;19.34;100.00;100355.38;5095326;28;20035;-75
2022/06/24 01:29:09;;;;;;;185.57;62.88;;;;;;;19.34;100.00;100347.88;5096499;28;20368;-74
2022/06/24 01:31:35;;;;;;;242.65;74.10;;;;;;;19.36;100.00;100334.66;5095012;28;20036;-75
2022/06/24 01:34:01;;;;;;;225.70;78.68;;;;;;;19.38;100.00;100340.91;5095066;28;20035;-75
2022/06/24 01:36:27;;;;;;;226.02;83.18;;;;;;;19.36;100.00;100358.81;5077996;28;20119;-75
2022/06/24 01:38:53;;;;;;;236.13;83.45;;;;;;;19.35;100.00;100357.06;5077966;28;20028;-75
2022/06/24 01:41:18;;;;;;;227.15;80.57;;;;;;;19.23;100.00;100367.78;5094877;28;20089;-74
2022/06/24 01:43:44;;;;;;;146.15;61.47;;;;;;;19.14;100.00;100364.25;5095793;28;20048;-75
2022/06/24 01:46:11;;;;;;;134.13;57.45;;;;;;;19.13;100.00;100368.06;5094814;28;20050;-75
2022/06/24 01:48:38;;;;;;;116.57;47.60;;;;;;;18.99;100.00;100368.91;5096086;28;20024;-74
2022/06/24 01:51:05;;;;;;;128.93;48.88;;;;;;;18.99;100.00;100361.47;5095984;28;20039;-74
2022/06/24 01:53:31;;;;;;;119.30;42.42;;;;;;;18.85;100.00;100359.50;5095797;28;20040;-74
2022/06/24 01:55:56;;;;;;;81.30;35.45;;;;;;;18.83;100.00;100354.16;5077614;28;20537;-74
2022/06/24 01:58:21;;;;;;;82.47;31.30;;;;;;;18.79;100.00;100354.69;5095457;28;20492;-74
2022/06/24 02:00:47;;;;;;;55.10;23.63;;;;;;;18.52;100.00;100352.31;5095629;28;20115;-74
2022/06/24 02:03:12;;;;;;;40.38;16.98;;;;;;;18.39;100.00;100357.63;5094551;28;20085;-75
2022/06/24 02:05:40;;;;;;;52.65;18.77;;;;;;;18.37;100.00;100357.81;5077477;28;20028;-75
2022/06/24 02:08:05;;;;;;;46.63;17.77;;;;;;;18.25;100.00;100362.06;5094477;28;20024;-74
2022/06/24 02:13:27;;;;;;;50.22;19.48;;;;;;;18.48;100.00;100367.59;5095483;28;20028;-74
2022/06/24 02:15:54;;;;;;;76.38;24.58;;;;;;;18.43;100.00;100353.44;5095445;28;20028;-76
2022/06/24 02:18:19;;;;;;;65.65;22.63;;;;;;;18.39;100.00;100354.00;5094287;28;20556;-74
2022/06/24 02:20:45;;;;;;;66.10;25.52;;;;;;;18.52;100.00;100349.53;5077433;28;20033;-75
2022/06/24 02:23:11;;;;;;;57.35;22.42;;;;;;;18.40;100.00;100355.69;5095303;28;20032;-76
2022/06/24 02:25:36;;;;;;;54.95;22.98;;;;;;;18.44;100.00;100351.53;5077158;28;20387;-75
2022/06/24 02:28:02;;;;;;;68.50;23.92;;;;;;;18.37;100.00;100343.09;5094091;28;20111;-74
2022/06/24 02:30:27;;;;;;;49.03;21.83;;;;;;;18.21;100.00;100337.66;5095235;28;20035;-74
2022/06/24 02:32:53;;;;;;;62.78;26.63;;;;;;;18.28;100.00;100333.97;5095051;28;20036;-74
2022/06/24 02:35:18;;;;;;;61.28;25.67;;;;;;;18.34;100.00;100332.38;5095094;28;20487;-74
2022/06/24 02:37:44;;;;;;;60.90;23.58;;;;;;;18.31;100.00;100338.28;5093785;28;20114;-74
2022/06/24 02:43:23;;;;;;;53.55;21.25;;;;;;;18.23;100.00;100325.34;5071398;28;20503;-75
2022/06/24 02:45:54;;;;;;;46.53;16.92;;;;;;;18.10;100.00;100333.41;5094852;28;20023;-75
2022/06/24 02:48:21;;;;;;;44.50;19.77;;;;;;;18.16;100.00;100316.03;5094738;28;20046;-75
2022/06/24 02:50:48;;;;;;;41.13;16.17;;;;;;;17.99;100.00;100318.94;5093513;28;20020;-75
2022/06/24 02:53:15;;;;;;;59.30;18.27;;;;;;;18.11;100.00;100305.50;5094685;28;20038;-75
2022/06/24 02:55:40;;;;;;;54.58;19.08;;;;;;;18.12;100.00;100310.00;5093537;28;20036;-75
2022/06/24 02:58:06;;;;;;;46.38;18.67;;;;;;;18.00;100.00;100306.81;5094634;28;20028;-75
2022/06/24 03:00:32;;;;;;;43.08;16.92;;;;;;;17.93;100.00;100303.03;5094683;28;20028;-75
2022/06/24 03:02:58;;;;;;;36.85;15.88;;;;;;;17.92;100.00;100304.09;5093204;28;20406;-75
2022/06/24 03:05:25;;;;;;;38.95;21.90;;;;;;;17.77;100.00;100297.56;5093261;28;20036;-74
2022/06/24 03:07:51;;;;;;;27.38;12.05;;;;;;;17.86;100.00;100307.56;5094475;28;20024;-74
2022/06/24 03:10:17;;;;;;;31.50;13.82;;;;;;;17.86;100.00;100292.88;5093571;28;20479;-74
2022/06/24 03:12:43;;;;;;;31.65;13.75;;;;;;;17.84;100.00;100287.50;5093043;28;20032;-74
2022/06/24 03:15:08;;;;;;;23.48;10.32;;;;;;;17.61;100.00;100287.44;5092998;28;20028;-74
2022/06/24 03:17:34;;;;;;;29.52;10.82;;;;;;;17.65;100.00;100277.75;5076124;28;20036;-74
2022/06/24 03:20:00;;;;;;;30.77;10.35;;;;;;;17.68;100.00;100280.16;5092961;28;20042;-74
2022/06/24 03:22:25;;;;;;;28.05;8.30;;;;;;;17.43;100.00;100285.81;5076122;28;20111;-74
2022/06/24 03:24:51;;;;;;;15.23;7.45;;;;;;;17.31;100.00;100291.94;5092843;28;20081;-74
2022/06/24 03:27:17;;;;;;;21.80;8.90;;;;;;;17.34;100.00;100297.13;5075910;28;20043;-74
2022/06/24 03:29:42;;;;;;;22.15;8.27;;;;;;;17.51;100.00;100290.47;5092910;28;20463;-74
2022/06/24 03:32:08;;;;;;;20.10;8.80;;;;;;;17.57;100.00;100275.88;5075801;28;20036;-74
2022/06/24 03:34:34;;;;;;;25.30;8.90;;;;;;;17.53;100.00;100279.19;5093970;28;20130;-74
2022/06/24 03:37:00;;;;;;;18.73;9.20;;;;;;;17.44;100.00;100281.16;5092706;28;20043;-75
2022/06/24 03:39:26;;;;;;;32.65;10.82;;;;;;;17.45;100.00;100277.34;5094314;28;20047;-75
2022/06/24 03:41:51;;;;;;;23.80;9.95;;;;;;;17.47;100.00;100266.94;5075603;28;20391;-75
2022/06/24 03:44:16;;;;;;;25.27;8.90;;;;;;;17.43;100.00;100262.81;5058806;28;20056;-75
2022/06/24 03:46:42;;;;;;;25.17;8.63;;;;;;;17.52;100.00;100266.41;5092513;28;20103;-75
2022/06/24 03:49:08;;;;;;;29.42;10.60;;;;;;;17.66;100.00;100265.63;5075510;28;20461;-75
2022/06/24 03:51:35;;;;;;;33.42;10.80;;;;;;;17.55;100.00;100261.38;5092286;28;20032;-75
2022/06/24 03:54:00;;;;;;;22.90;8.70;;;;;;;17.62;100.00;100272.56;5093735;28;20479;-74
2022/06/24 03:56:25;;;;;;;23.42;8.25;;;;;;;17.48;100.00;100274.22;5058874;28;20031;-74
2022/06/24 03:58:51;;;;;;;15.98;6.05;;;;;;;17.33;100.00;100289.84;5092454;28;20062;-74
2022/06/24 04:01:16;;;;;;;20.73;7.43;;;;;;;17.47;100.00;100291.00;5092194;28;20032;-74
2022/06/24 04:03:42;;;;;;;12.52;6.40;;;;;;;17.55;100.00;100297.34;5092306;28;20505;-74
2022/06/24 04:06:07;;;;;;;17.65;7.45;;;;;;;17.66;100.00;100284.13;5093595;28;20503;-74
2022/06/24 04:08:34;;;;;;;17.02;7.78;;;;;;;17.62;100.00;100289.19;5092201;28;20081;-74
2022/06/24 04:11:08;;;;;;;19.33;7.97;;;;;;;17.61;100.00;100290.22;5093323;28;20028;-74
2022/06/24 04:13:34;;;;;;;14.32;7.05;;;;;;;17.48;100.00;100287.19;5075478;28;20028;-75
2022/06/24 04:15:59;;;;;;;17.02;7.78;;;;;;;17.56;100.00;100284.38;5092116;28;20028;-75
2022/06/24 04:18:25;;;;;;;22.70;8.13;;;;;;;17.67;100.00;100292.25;5092143;28;20039;-75
2022/06/24 04:20:50;;;;;;;21.23;8.10;;;;;;;17.60;100.00;100280.19;5092995;28;20458;-74
2022/06/24 04:23:15;;;;;;;28.67;9.88;;;;;;;17.59;100.00;100284.88;5093183;28;20103;-74
2022/06/24 04:25:41;;;;;;;28.70;10.70;;;;;;;17.63;100.00;100277.94;5071070;28;20028;-74
2022/06/24 04:28:07;;;;;;;22.25;9.50;;;;;;;17.60;100.00;100269.13;5071904;28;20032;-75
2022/06/24 04:30:32;;;;;;;21.38;8.90;;;;;;;17.53;100.00;100279.19;5072924;28;20052;-74
2022/06/24 04:33:00;;;;;;;26.55;8.60;;;;;;;17.43;100.00;100280.28;5055455;28;20447;-75
2022/06/24 04:35:25;;;;;;;24.88;9.25;;;;;;;17.47;100.00;100286.31;5054994;28;20115;-75
2022/06/24 04:37:51;;;;;;;29.95;10.00;;;;;;;17.43;100.00;100285.81;5071674;28;20488;-75
2022/06/24 04:40:16;;;;;;;26.65;10.27;;;;;;;17.62;100.00;100284.50;5071608;28;20119;-75
2022/06/24 04:42:45;;;;;;;32.15;12.32;;;;;;;17.78;100.00;100288.22;5071467;28;20131;-75
2022/06/24 04:45:11;;;;;;;29.88;10.90;;;;;;;17.58;100.00;100308.06;5071473;28;20040;-75
2022/06/24 04:47:37;;;;;;;26.10;11.32;;;;;;;17.62;100.00;100320.50;5072735;28;20035;-75
2022/06/24 04:50:03;;;;;;;26.42;11.27;;;;;;;17.67;100.00;100327.41;5054788;28;20115;-75
2022/06/24 04:52:28;;;;;;;31.50;10.95;;;;;;;17.69;100.00;100330.84;5072904;28;20473;-75
2022/06/24 04:54:54;;;;;;;29.05;13.00;;;;;;;17.80;100.00;100336.84;5071710;28;20446;-74
2022/06/24 04:57:19;;;;;;;21.13;11.38;;;;;;;17.56;100.00;100345.25;5055036;28;20037;-74
2022/06/24 04:59:45;;;;;;;24.20;12.00;;;;;;;17.55;100.00;100340.78;5071711;28;20082;-74
2022/06/24 05:02:10;;;;;;;24.48;11.95;;;;;;;17.49;100.00;100356.19;5054970;28;20033;-74
2022/06/24 05:04:36;;;;;;;24.00;11.00;;;;;;;17.46;100.00;100364.84;5055200;28;20032;-74
2022/06/24 05:07:03;;;;;;;29.13;12.38;;;;;;;17.52;100.00;100372.44;5073020;28;20071;-74
2022/06/24 05:09:28;;;;;;;34.78;13.27;;;;;;;17.54;100.00;100375.03;5091312;28;20032;-74
2022/06/24 05:11:54;;;;;;;32.13;12.75;;;;;;;17.47;100.00;100385.13;5091558;28;20108;-74
2022/06/24 05:14:19;;;;;;;28.88;12.98;;;;;;;17.47;100.00;100385.13;5092904;28;20138;-74
2022/06/24 05:16:45;;;;;;;29.52;13.10;;;;;;;17.46;100.00;100381.47;5091625;28;20032;-74
2022/06/24 05:19:11;;;;;;;44.25;16.88;;;;;;;17.63;100.00;100379.50;5091377;28;20074;-74
2022/06/24 05:21:36;;;;;;;35.28;14.60;;;;;;;17.45;100.00;100369.53;5092775;28;20487;-74
2022/06/24 05:24:02;;;;;;;31.50;14.32;;;;;;;17.57;100.00;100371.91;5092644;28;20059;-74
2022/06/24 05:26:28;;;;;;;36.20;14.80;;;;;;;17.53;100.00;100368.66;5091730;28;20032;-74
2022/06/24 05:28:54;;;;;;;33.92;13.80;;;;;;;17.63;100.00;100360.13;5092649;28;20036;-74
2022/06/24 05:31:19;;;;;;;38.55;12.90;;;;;;;17.48;100.00;100361.91;5074421;28;20040;-74
2022/06/24 05:33:45;;;;;;;33.35;14.05;;;;;;;17.56;100.00;100364.66;5077131;28;20036;-75
2022/06/24 05:36:10;;;;;;;37.95;15.55;;;;;;;17.72;100.00;100355.41;5095035;28;20032;-74
2022/06/24 05:38:36;;;;;;;39.13;15.45;;;;;;;17.75;100.00;100355.06;5078030;28;20482;-75
2022/06/24 05:41:03;;;;;;;38.28;17.35;;;;;;;17.78;100.00;100357.47;5077866;28;20035;-75
2022/06/24 05:43:29;;;;;;;47.13;16.88;;;;;;;17.74;100.00;100358.84;5095733;28;20127;-75
2022/06/24 05:45:54;;;;;;;37.67;17.08;;;;;;;17.67;100.00;100361.47;5095998;28;20094;-75
2022/06/24 05:48:20;;;;;;;33.17;17.52;;;;;;;17.78;100.00;100358.31;5077870;28;20036;-75
2022/06/24 05:50:46;;;;;;;44.28;17.73;;;;;;;18.05;100.00;100338.63;5095174;28;20475;-75
2022/06/24 05:55:58;;;;;;;42.33;17.98;;;;;;;18.22;100.00;100340.25;5080564;28;20040;-75
2022/06/24 05:58:28;;;;;;;41.08;17.90;;;;;;;18.16;100.00;100325.22;5095792;28;20066;-75
2022/06/24 06:00:54;;;;;;;43.88;20.13;;;;;;;18.24;100.00;100335.38;5095675;28;20123;-75
2022/06/24 06:03:24;;;;;;;38.33;17.70;;;;;;;18.21;100.00;100337.66;5095984;28;20073;-75
2022/06/24 06:05:50;;;;;;;36.70;15.73;;;;;;;18.12;100.00;100342.41;5094302;28;20081;-75
2022/06/24 06:08:16;;;;;;;40.40;16.35;;;;;;;18.05;100.00;100345.03;5077494;28;20027;-75
2022/06/24 06:10:43;;;;;;;44.08;20.02;;;;;;;17.96;100.00;100338.69;5095539;28;20099;-75
2022/06/24 06:13:10;;;;;;;44.83;20.33;;;;;;;18.06;100.00;100343.13;5095411;28;20028;-75
2022/06/24 06:15:35;;;;;;;48.42;21.30;;;;;;;17.95;100.00;100344.41;5095528;28;20099;-75
2022/06/24 06:18:01;;;;;;;48.60;24.08;;;;;;;17.93;100.00;100343.75;5094256;28;20107;-75
2022/06/24 06:20:27;;;;;;;59.65;25.60;;;;;;;18.04;100.00;100342.44;5077101;28;20028;-75
2022/06/24 06:22:53;;;;;;;58.70;25.55;;;;;;;18.01;100.00;100343.69;5077310;28;20032;-75
2022/06/24 06:25:18;;;;;;;55.53;25.20;;;;;;;17.94;100.00;100340.78;5095139;28;20111;-75
2022/06/24 06:27:44;;;;;;;49.75;24.17;;;;;;;18.01;100.00;100343.69;5094377;28;20376;-75
2022/06/24 06:30:10;;;;;;;64.15;27.02;;;;;;;18.02;100.00;100345.41;5077082;28;20040;-75
2022/06/24 06:32:36;;;;;;;61.58;27.52;;;;;;;17.97;100.00;100361.69;5095264;28;20036;-75
2022/06/24 06:35:03;;;;;;;61.28;26.85;;;;;;;17.91;100.00;100356.91;5093731;28;20024;-75
2022/06/24 06:37:28;;;;;;;65.53;26.42;;;;;;;17.94;100.00;100362.94;5093759;28;20043;-75
2022/06/24 06:39:54;;;;;;;66.00;29.17;;;;;;;17.94;100.00;100368.50;5094925;28;20485;-75
2022/06/24 06:42:19;;;;;;;71.10;25.92;;;;;;;17.93;100.00;100365.91;5076914;28;20506;-75
2022/06/24 06:44:45;;;;;;;62.22;27.15;;;;;;;17.88;100.00;100371.97;5092221;28;20056;-75
2022/06/24 06:47:10;;;;;;;61.63;27.05;;;;;;;17.86;100.00;100373.19;5094835;28;20024;-75
2022/06/24 06:49:36;;;;;;;72.90;27.52;;;;;;;17.82;100.00;100376.31;5076388;28;20066;-75
2022/06/24 06:52:02;;;;;;;59.63;25.15;;;;;;;17.86;100.00;100375.97;5093427;28;20032;-75
2022/06/24 06:54:29;;;;;;;79.10;26.85;;;;;;;17.77;100.00;100364.91;5094676;28;20088;-75
2022/06/24 06:56:56;;;;;;;56.35;22.98;;;;;;;17.72;100.00;100364.56;5094554;28;20036;-74
2022/06/24 06:59:22;;;;;;;70.95;24.50;;;;;;;17.72;100.00;100372.03;5076480;28;20483;-74
2022/06/24 07:01:47;;;;;;;68.30;24.30;;;;;;;17.69;100.00;100364.94;5093394;28;20089;-75
2022/06/24 07:04:13;;;;;;;69.90;25.08;;;;;;;17.74;100.00;100358.84;5059761;28;20414;-74
2022/06/24 07:06:38;;;;;;;60.22;23.10;;;;;;;17.64;100.00;100365.50;5076499;28;20483;-74
2022/06/24 07:09:04;;;;;;;62.35;21.27;;;;;;;17.63;100.00;100361.00;5076334;28;20503;-75
2022/06/24 07:11:29;;;;;;;59.33;22.05;;;;;;;17.69;100.00;100364.06;5093096;28;20028;-75
2022/06/24 07:13:55;;;;;;;53.85;22.42;;;;;;;17.67;100.00;100361.47;5092953;28;20036;-74
2022/06/24 07:16:21;;;;;;;50.55;21.33;;;;;;;17.63;100.00;100362.91;5093150;28;20028;-75
2022/06/24 07:18:46;;;;;;;52.75;20.30;;;;;;;17.53;100.00;100367.78;5093341;28;20036;-75
2022/06/24 07:21:15;;;;;;;55.40;23.55;;;;;;;17.64;100.00;100356.31;5076025;28;20391;-74
2022/06/24 07:23:41;;;;;;;49.75;23.42;;;;;;;17.62;100.00;100356.47;5092945;28;20032;-74
2022/06/24 07:26:07;;;;;;;71.63;27.38;;;;;;;17.62;100.00;100344.56;5075932;28;20044;-75
2022/06/24 07:28:37;;;;;;;65.85;27.17;;;;;;;17.68;100.00;100345.75;5075857;28;20554;-74
2022/06/24 07:31:18;;;;;;;85.32;31.45;;;;;;;17.66;100.00;100347.81;5094022;28;20039;-74
2022/06/24 07:33:44;;;;;;;65.20;28.15;;;;;;;17.68;100.00;100343.84;5092699;28;20024;-74
2022/06/24 07:36:10;;;;;;;89.55;33.60;;;;;;;17.89;100.00;100336.81;5093897;28;20032;-74
2022/06/24 07:38:36;;;;;;;83.20;35.47;;;;;;;17.77;100.00;100340.00;5093913;28;20086;-74
2022/06/24 07:41:02;;;;;;;95.22;37.05;;;;;;;17.67;100.00;100335.72;5093910;28;20058;-74
2022/06/24 07:43:28;;;;;;;90.10;35.70;;;;;;;17.77;100.00;100328.91;5093464;28;20487;-74
2022/06/24 07:45:54;;;;;;;111.22;38.97;;;;;;;17.80;100.00;100313.81;5093797;28;20039;-75
2022/06/24 07:48:21;;;;;;;112.10;39.75;;;;;;;17.93;100.00;100321.56;5093734;28;20058;-74
2022/06/24 07:50:46;;;;;;;83.75;36.90;;;;;;;17.93;100.00;100324.34;5092408;28;20066;-74
2022/06/24 07:53:12;;;;;;;80.50;35.88;;;;;;;17.91;100.00;100330.06;5092310;28;20058;-74
2022/06/24 07:58:22;;;;;;;80.88;35.03;;;;;;;17.96;100.00;100323.97;5092507;28;20032;-74
2022/06/24 08:00:48;;;;;;;87.07;36.22;;;;;;;18.02;100.00;100320.50;5092282;28;20104;-74
2022/06/24 08:03:14;;;;;;;78.68;35.95;;;;;;;18.04;100.00;100325.81;5092341;28;20039;-74
2022/06/24 08:05:40;;;;;;;74.15;32.95;;;;;;;18.08;100.00;100321.66;5075295;28;20093;-75
2022/06/24 08:08:06;;;;;;;96.18;40.03;;;;;;;18.24;100.00;100329.00;5093218;28;20467;-75
2022/06/24 08:10:32;;;;;;;88.70;38.75;;;;;;;18.23;100.00;100335.56;5092135;28;20040;-75
2022/06/24 08:12:57;;;;;;;87.97;38.05;;;;;;;18.29;100.00;100338.47;5093386;28;20484;-74
2022/06/24 08:15:23;;;;;;;94.40;40.08;;;;;;;18.21;100.00;100345.97;5092140;28;20107;-75
2022/06/24 08:17:48;;;;;;;103.45;43.15;;;;;;;18.44;100.00;100348.75;5075279;28;20082;-74
2022/06/24 08:20:14;;;;;;;101.57;40.95;;;;;;;18.34;100.00;100351.78;5093132;28;20059;-74
2022/06/24 08:22:40;;;;;;;112.05;46.00;;;;;;;18.54;100.00;100347.47;5091952;28;20047;-75
2022/06/24 08:25:06;;;;;;;112.10;44.22;;;;;;;18.37;100.00;100359.72;5092209;28;20032;-75
2022/06/24 08:27:31;;;;;;;126.47;47.55;;;;;;;18.45;100.00;100356.03;5092567;28;20039;-75
2022/06/24 08:29:57;;;;;;;92.82;39.78;;;;;;;18.42;100.00;100354.47;5093302;28;20059;-75
2022/06/24 08:32:22;;;;;;;101.28;41.85;;;;;;;18.57;100.00;100351.75;5091934;28;20058;-75
2022/06/24 08:34:48;;;;;;;104.05;41.63;;;;;;;18.66;100.00;100347.00;5058418;28;20032;-75
2022/06/24 08:37:13;;;;;;;102.72;41.30;;;;;;;18.73;100.00;100359.94;5091935;28;20028;-75
2022/06/24 08:39:39;;;;;;;81.22;36.35;;;;;;;18.69;100.00;100343.84;5091754;28;20032;-75
2022/06/24 08:42:07;;;;;;;90.18;37.53;;;;;;;18.81;100.00;100352.59;5091735;28;20032;-75
2022/06/24 08:44:34;;;;;;;92.47;41.10;;;;;;;18.96;100.00;100350.72;5092886;28;20059;-75
2022/06/24 08:47:00;;;;;;;116.55;42.67;;;;;;;19.09;100.00;100347.31;5091840;28;20032;-75
2022/06/24 08:49:26;;;;;;;90.07;40.08;;;;;;;19.11;100.00;100350.75;5093125;28;20380;-75
2022/06/24 08:51:55;;;;;;;95.90;44.25;;;;;;;19.18;100.00;100357.25;5091868;28;20458;-75
2022/06/24 08:54:30;;;;;;;83.50;41.90;;;;;;;19.22;100.00;100353.06;5091663;28;20035;-75
2022/06/24 08:56:56;;;;;;;102.72;45.72;;;;;;;19.08;100.00;100349.19;5091895;28;20118;-75
2022/06/24 08:59:21;;;;;;;110.55;49.70;;;;;;;19.26;100.00;100353.53;5092917;28;20074;-74
2022/06/24 09:01:47;;;;;;;135.35;56.30;;;;;;;19.31;100.00;100341.88;5092884;28;20085;-75
2022/06/24 09:04:13;;;;;;;143.32;56.75;;;;;;;19.27;100.00;100345.00;5092872;28;20482;-75
2022/06/24 09:06:40;;;;;;;133.23;56.75;;;;;;;19.28;100.00;100335.66;5092813;28;20027;-76
2022/06/24 09:09:06;;;;;;;132.02;57.17;;;;;;;19.43;100.00;100334.75;5094826;28;20032;-75
2022/06/24 09:11:39;;;;;;;164.05;63.03;;;;;;;19.65;100.00;100325.44;5095353;28;20028;-75
2022/06/24 09:14:06;;;;;;;146.45;61.17;;;;;;;19.74;100.00;100333.66;5096623;28;20044;-75
2022/06/24 09:16:35;;;;;;;157.43;69.40;;;;;;;19.94;100.00;100318.16;5096548;28;20035;-75
2022/06/24 09:19:03;;;;;;;159.95;72.00;;;;;;;19.87;100.00;100328.31;5095359;28;20079;-76
2022/06/24 09:21:34;;;;;;;153.50;65.75;;;;;;;19.96;100.00;100321.56;5095341;28;20032;-75
2022/06/24 09:24:02;;;;;;;164.10;73.63;;;;;;;19.94;100.00;100318.16;5095327;28;20036;-75
2022/06/24 09:26:46;;;;;;;161.68;72.28;;;;;;;20.00;100.00;100325.69;5095119;28;20506;-76
2022/06/24 09:29:14;;;;;;;226.50;87.35;;;;;;;20.09;100.00;100331.13;5078146;28;20040;-75
2022/06/24 09:31:39;;;;;;;153.02;70.38;;;;;;;20.13;100.00;100324.97;5094999;28;20024;-76
2022/06/24 09:34:15;;;;;;;169.60;76.07;;;;;;;20.04;100.00;100339.19;5094930;28;20444;-76
2022/06/24 09:36:43;;;;;;;180.65;79.13;;;;;;;20.23;100.00;100338.53;5096144;28;20085;-75
2022/06/24 09:39:12;;;;;;;154.60;73.97;;;;;;;20.77;100.00;100337.16;5095055;28;20049;-75
2022/06/24 09:41:48;;;;;;;138.77;65.68;;;;;;;21.20;100.00;100339.84;5096301;28;20111;-75
2022/06/24 09:44:15;;;;;;;128.40;61.33;;;;;;;21.67;100.00;100340.97;5095776;28;20059;-75
2022/06/24 09:46:42;;;;;;;124.47;60.58;;;;;;;21.77;100.00;100331.38;5095947;28;20114;-75
2022/06/24 09:49:11;;;;;;;124.75;60.33;;;;;;;22.38;100.00;100338.88;5095927;28;20142;-75
2022/06/24 09:51:39;;;;;;;122.25;56.38;;;;;;;22.02;100.00;100332.56;5077634;28;20028;-76
2022/06/24 09:54:05;;;;;;;113.80;55.70;;;;;;;21.58;100.00;100338.56;5094659;28;20426;-75
2022/06/24 09:56:32;;;;;;;132.25;63.90;;;;;;;21.71;100.00;100335.88;5094754;28;20472;-75
2022/06/24 10:01:43;;;;;;;97.22;46.58;;;;;;;21.32;100.00;100333.69;5095748;28;20028;-75
2022/06/24 10:04:13;;;;;;;94.45;47.90;;;;;;;21.59;100.00;100335.56;5094424;28;20364;-75
2022/06/24 10:06:42;;;;;;;92.65;46.95;;;;;;;21.99;100.00;100337.69;5077547;28;20063;-75
2022/06/24 10:09:08;;;;;;;81.38;36.08;;;;;;;22.50;100.00;100337.19;5095381;28;20103;-75
2022/06/24 10:11:37;;;;;;;57.40;29.13;;;;;;;22.60;100.00;100341.50;5061035;28;20128;-75
2022/06/24 10:14:02;;;;;;;52.70;25.30;;;;;;;23.22;100.00;100337.41;5095692;28;20494;-75
2022/06/24 10:16:28;;;;;;;44.80;23.70;;;;;;;23.35;100.00;100338.44;5095391;28;20036;-75
2022/06/24 10:18:56;;;;;;;35.17;18.85;;;;;;;23.65;100.00;100342.44;5093864;28;20043;-74
2022/06/24 10:21:23;;;;;;;57.72;30.50;;;;;;;22.97;100.00;100339.13;5094203;28;20031;-73
2022/06/24 10:23:51;;;;;;;54.10;28.92;;;;;;;22.83;100.00;100332.69;5094181;28;20119;-74
2022/06/24 10:26:29;;;;;;;61.75;31.13;;;;;;;23.54;100.00;100337.53;5094201;28;20028;-75
2022/06/24 10:29:03;;;;;;;55.50;26.38;;;;;;;23.66;100.00;100332.97;5094017;28;20503;-75
2022/06/24 10:31:55;;;;;;;31.27;13.25;;;;;;;23.69;100.00;100328.88;5093857;28;20454;-74
2022/06/24 10:34:33;;;;;;;21.38;10.82;;;;;;;23.77;100.00;100337.00;5095402;28;20070;-74
2022/06/24 10:37:10;;;;;;;24.38;11.57;;;;;;;23.75;100.00;100346.72;5094009;28;20028;-74
2022/06/24 10:39:45;;;;;;;23.02;11.18;;;;;;;23.93;100.00;100341.28;5094873;28;20111;-74
2022/06/24 10:42:14;;;;;;;22.50;10.32;;;;;;;23.07;100.00;100348.81;5094907;28;20024;-74
2022/06/24 10:45:05;;;;;;;16.83;10.65;;;;;;;22.18;100.00;100355.53;5094565;28;20052;-74
2022/06/24 10:47:34;;;;;;;28.98;13.93;;;;;;;22.13;100.00;100353.38;5076727;28;20036;-74
2022/06/24 10:50:02;;;;;;;24.48;13.35;;;;;;;21.99;100.00;100349.69;5093497;28;20035;-73
2022/06/24 10:52:38;;;;;;;18.52;11.50;;;;;;;21.89;100.00;100348.34;5095002;28;20040;-74
2022/06/24 10:55:15;;;;;;;28.48;13.95;;;;;;;21.94;100.00;100349.47;5094596;28;20110;-75
2022/06/24 10:57:41;;;;;;;22.70;12.90;;;;;;;21.92;100.00;100347.94;5093470;28;20118;-74
2022/06/24 11:00:12;;;;;;;23.38;12.93;;;;;;;21.52;100.00;100348.63;5093153;28;20097;-74
2022/06/24 11:02:37;;;;;;;34.60;15.23;;;;;;;21.20;100.00;100348.19;5076290;28;20494;-74
2022/06/24 11:05:10;;;;;;;31.45;15.88;;;;;;;21.09;100.00;100355.19;5094409;28;20053;-74
2022/06/24 11:07:44;;;;;;;29.40;16.83;;;;;;;21.39;100.00;100351.31;5094411;28;20028;-75
2022/06/24 11:10:15;;;;;;;29.10;17.13;;;;;;;21.08;100.00;100359.00;5094604;28;20416;-74
2022/06/24 11:12:41;;;;;;;19.40;13.70;;;;;;;21.38;100.00;100350.47;5094402;28;20036;-75
2022/06/24 11:15:07;;;;;;;27.25;11.85;;;;;;;21.30;100.00;100359.81;5076083;28;20297;-75